sensor_id;sensor_type;location;lat;lon;timestamp;temperature;humidity
45785;DHT22;31489;51.404;5.474;2023-07-31T00:00:08;20.00;83.80
45785;DHT22;31489;51.404;5.474;2023-07-31T00:02:37;20.00;83.80
45785;DHT22;31489;51.404;5.474;2023-07-31T00:05:02;20.00;83.80
45785;DHT22;31489;51.404;5.474;2023-07-31T00:07:28;20.00;83.80
45785;DHT22;31489;51.404;5.474;2023-07-31T00:09:54;20.00;83.80
45785;DHT22;31489;51.404;5.474;2023-07-31T00:12:20;20.00;83.80
45785;DHT22;31489;51.404;5.474;2023-07-31T00:14:46;20.00;83.80
45785;DHT22;31489;51.404;5.474;2023-07-31T00:17:12;20.00;83.70
45785;DHT22;31489;51.404;5.474;2023-07-31T00:19:37;20.00;83.70
45785;DHT22;31489;51.404;5.474;2023-07-31T00:22:03;20.00;83.80
45785;DHT22;31489;51.404;5.474;2023-07-31T00:24:29;20.00;83.80
45785;DHT22;31489;51.404;5.474;2023-07-31T00:26:54;20.00;83.80
45785;DHT22;31489;51.404;5.474;2023-07-31T00:29:20;20.00;83.70
45785;DHT22;31489;51.404;5.474;2023-07-31T00:31:46;20.00;83.60
45785;DHT22;31489;51.404;5.474;2023-07-31T00:34:11;20.00;83.80
45785;DHT22;31489;51.404;5.474;2023-07-31T00:36:37;20.00;83.70
45785;DHT22;31489;51.404;5.474;2023-07-31T00:39:02;20.00;83.60
45785;DHT22;31489;51.404;5.474;2023-07-31T00:41:30;20.10;83.70
45785;DHT22;31489;51.404;5.474;2023-07-31T00:43:55;20.10;83.60
45785;DHT22;31489;51.404;5.474;2023-07-31T00:46:21;20.10;83.60
45785;DHT22;31489;51.404;5.474;2023-07-31T00:48:47;20.10;83.50
45785;DHT22;31489;51.404;5.474;2023-07-31T00:51:12;20.10;83.10
45785;DHT22;31489;51.404;5.474;2023-07-31T00:53:40;20.10;83.10
45785;DHT22;31489;51.404;5.474;2023-07-31T00:56:06;20.10;83.10
45785;DHT22;31489;51.404;5.474;2023-07-31T00:58:31;20.10;82.90
45785;DHT22;31489;51.404;5.474;2023-07-31T01:00:57;20.10;82.90
45785;DHT22;31489;51.404;5.474;2023-07-31T01:03:23;20.00;82.90
45785;DHT22;31489;51.404;5.474;2023-07-31T01:08:57;20.00;82.60
45785;DHT22;31489;51.404;5.474;2023-07-31T01:11:33;20.00;82.50
45785;DHT22;31489;51.404;5.474;2023-07-31T01:13:59;20.10;82.40
45785;DHT22;31489;51.404;5.474;2023-07-31T01:16:25;20.00;82.20
45785;DHT22;31489;51.404;5.474;2023-07-31T01:18:52;20.00;82.30
45785;DHT22;31489;51.404;5.474;2023-07-31T01:21:41;20.00;82.80
45785;DHT22;31489;51.404;5.474;2023-07-31T01:26:40;20.00;82.00
45785;DHT22;31489;51.404;5.474;2023-07-31T01:29:37;20.00;81.80
45785;DHT22;31489;51.404;5.474;2023-07-31T01:31:59;20.00;81.90
45785;DHT22;31489;51.404;5.474;2023-07-31T01:34:27;20.00;81.90
45785;DHT22;31489;51.404;5.474;2023-07-31T01:36:53;20.00;81.80
45785;DHT22;31489;51.404;5.474;2023-07-31T01:39:20;20.00;81.70
45785;DHT22;31489;51.404;5.474;2023-07-31T01:41:46;20.00;81.60
45785;DHT22;31489;51.404;5.474;2023-07-31T01:44:12;20.00;81.50
45785;DHT22;31489;51.404;5.474;2023-07-31T01:46:37;19.90;81.60
45785;DHT22;31489;51.404;5.474;2023-07-31T01:49:03;20.00;81.60
45785;DHT22;31489;51.404;5.474;2023-07-31T01:51:31;19.90;81.60
45785;DHT22;31489;51.404;5.474;2023-07-31T01:53:59;19.90;81.30
45785;DHT22;31489;51.404;5.474;2023-07-31T01:56:25;19.90;81.20
45785;DHT22;31489;51.404;5.474;2023-07-31T01:58:51;20.00;81.20
45785;DHT22;31489;51.404;5.474;2023-07-31T02:01:16;19.90;80.90
45785;DHT22;31489;51.404;5.474;2023-07-31T02:03:42;19.90;80.90
45785;DHT22;31489;51.404;5.474;2023-07-31T02:06:08;19.90;80.90
45785;DHT22;31489;51.404;5.474;2023-07-31T02:08:33;19.90;81.00
45785;DHT22;31489;51.404;5.474;2023-07-31T02:10:59;19.80;81.00
45785;DHT22;31489;51.404;5.474;2023-07-31T02:13:25;19.80;81.00
45785;DHT22;31489;51.404;5.474;2023-07-31T02:15:51;19.80;81.20
45785;DHT22;31489;51.404;5.474;2023-07-31T02:18:17;19.80;81.00
45785;DHT22;31489;51.404;5.474;2023-07-31T02:20:42;19.90;81.00
45785;DHT22;31489;51.404;5.474;2023-07-31T02:23:08;19.90;81.00
45785;DHT22;31489;51.404;5.474;2023-07-31T02:25:34;19.80;80.80
45785;DHT22;31489;51.404;5.474;2023-07-31T02:28:00;19.80;80.90
45785;DHT22;31489;51.404;5.474;2023-07-31T02:30:25;19.80;80.80
45785;DHT22;31489;51.404;5.474;2023-07-31T02:32:51;19.90;80.90
45785;DHT22;31489;51.404;5.474;2023-07-31T02:35:17;19.80;80.80
45785;DHT22;31489;51.404;5.474;2023-07-31T02:37:43;19.90;80.90
45785;DHT22;31489;51.404;5.474;2023-07-31T02:40:09;19.80;80.80
45785;DHT22;31489;51.404;5.474;2023-07-31T02:42:35;19.90;81.00
45785;DHT22;31489;51.404;5.474;2023-07-31T02:45:01;19.80;80.90
45785;DHT22;31489;51.404;5.474;2023-07-31T02:47:26;19.80;80.90
45785;DHT22;31489;51.404;5.474;2023-07-31T02:49:52;19.80;81.00
45785;DHT22;31489;51.404;5.474;2023-07-31T02:52:17;19.80;81.00
45785;DHT22;31489;51.404;5.474;2023-07-31T02:54:43;19.80;81.00
45785;DHT22;31489;51.404;5.474;2023-07-31T02:57:09;19.80;81.10
45785;DHT22;31489;51.404;5.474;2023-07-31T02:59:34;19.90;81.20
45785;DHT22;31489;51.404;5.474;2023-07-31T03:02:00;19.90;81.20
45785;DHT22;31489;51.404;5.474;2023-07-31T03:04:26;19.90;81.20
45785;DHT22;31489;51.404;5.474;2023-07-31T03:06:51;19.90;81.30
45785;DHT22;31489;51.404;5.474;2023-07-31T03:09:17;19.90;81.50
45785;DHT22;31489;51.404;5.474;2023-07-31T03:11:42;19.90;81.30
45785;DHT22;31489;51.404;5.474;2023-07-31T03:14:08;19.90;81.40
45785;DHT22;31489;51.404;5.474;2023-07-31T03:16:34;19.90;81.30
45785;DHT22;31489;51.404;5.474;2023-07-31T03:18:59;19.90;81.30
45785;DHT22;31489;51.404;5.474;2023-07-31T03:21:28;19.90;81.30
45785;DHT22;31489;51.404;5.474;2023-07-31T03:23:54;19.90;81.30
45785;DHT22;31489;51.404;5.474;2023-07-31T03:26:19;19.90;81.30
45785;DHT22;31489;51.404;5.474;2023-07-31T03:28:45;19.90;81.40
45785;DHT22;31489;51.404;5.474;2023-07-31T03:31:11;19.90;81.40
45785;DHT22;31489;51.404;5.474;2023-07-31T03:33:37;19.90;81.50
45785;DHT22;31489;51.404;5.474;2023-07-31T03:36:03;19.90;82.00
45785;DHT22;31489;51.404;5.474;2023-07-31T03:38:29;20.00;81.40
45785;DHT22;31489;51.404;5.474;2023-07-31T03:40:54;20.00;81.50
45785;DHT22;31489;51.404;5.474;2023-07-31T03:43:20;20.00;81.50
45785;DHT22;31489;51.404;5.474;2023-07-31T03:45:45;20.00;81.60
45785;DHT22;31489;51.404;5.474;2023-07-31T03:48:11;20.10;81.60
45785;DHT22;31489;51.404;5.474;2023-07-31T03:50:37;20.10;81.70
45785;DHT22;31489;51.404;5.474;2023-07-31T03:53:02;20.10;81.90
45785;DHT22;31489;51.404;5.474;2023-07-31T03:55:28;20.10;81.80
45785;DHT22;31489;51.404;5.474;2023-07-31T03:57:54;20.10;81.80
45785;DHT22;31489;51.404;5.474;2023-07-31T04:00:19;20.10;81.70
45785;DHT22;31489;51.404;5.474;2023-07-31T04:02:46;20.10;81.70
45785;DHT22;31489;51.404;5.474;2023-07-31T04:05:11;20.10;81.70
45785;DHT22;31489;51.404;5.474;2023-07-31T04:07:37;20.20;81.70
45785;DHT22;31489;51.404;5.474;2023-07-31T04:10:03;20.20;81.80
45785;DHT22;31489;51.404;5.474;2023-07-31T04:12:29;20.20;81.80
45785;DHT22;31489;51.404;5.474;2023-07-31T04:14:54;20.20;81.80
45785;DHT22;31489;51.404;5.474;2023-07-31T04:17:23;20.20;81.80
45785;DHT22;31489;51.404;5.474;2023-07-31T04:19:48;20.20;81.70
45785;DHT22;31489;51.404;5.474;2023-07-31T04:22:14;20.20;81.80
45785;DHT22;31489;51.404;5.474;2023-07-31T04:24:40;20.20;81.80
45785;DHT22;31489;51.404;5.474;2023-07-31T04:27:05;20.20;81.80
45785;DHT22;31489;51.404;5.474;2023-07-31T04:29:31;20.20;81.90
45785;DHT22;31489;51.404;5.474;2023-07-31T04:31:57;20.30;81.90
45785;DHT22;31489;51.404;5.474;2023-07-31T04:34:22;20.30;82.00
45785;DHT22;31489;51.404;5.474;2023-07-31T04:36:48;20.30;82.10
45785;DHT22;31489;51.404;5.474;2023-07-31T04:39:13;20.30;82.20
45785;DHT22;31489;51.404;5.474;2023-07-31T04:41:39;20.30;82.30
45785;DHT22;31489;51.404;5.474;2023-07-31T04:44:05;20.30;82.40
45785;DHT22;31489;51.404;5.474;2023-07-31T04:46:30;20.30;82.40
45785;DHT22;31489;51.404;5.474;2023-07-31T04:48:56;20.30;82.50
45785;DHT22;31489;51.404;5.474;2023-07-31T04:51:22;20.30;82.50
45785;DHT22;31489;51.404;5.474;2023-07-31T04:53:49;20.30;82.40
45785;DHT22;31489;51.404;5.474;2023-07-31T04:56:15;20.30;82.50
45785;DHT22;31489;51.404;5.474;2023-07-31T04:58:41;20.30;82.40
45785;DHT22;31489;51.404;5.474;2023-07-31T05:01:06;20.40;82.60
45785;DHT22;31489;51.404;5.474;2023-07-31T05:03:32;20.30;82.50
45785;DHT22;31489;51.404;5.474;2023-07-31T05:05:58;20.40;82.70
45785;DHT22;31489;51.404;5.474;2023-07-31T05:08:23;20.30;82.60
45785;DHT22;31489;51.404;5.474;2023-07-31T05:10:52;20.30;82.50
45785;DHT22;31489;51.404;5.474;2023-07-31T05:13:17;20.30;82.60
45785;DHT22;31489;51.404;5.474;2023-07-31T05:15:43;20.30;82.80
45785;DHT22;31489;51.404;5.474;2023-07-31T05:18:09;20.30;82.70
45785;DHT22;31489;51.404;5.474;2023-07-31T05:20:35;20.30;83.00
45785;DHT22;31489;51.404;5.474;2023-07-31T05:23:00;20.20;83.00
45785;DHT22;31489;51.404;5.474;2023-07-31T05:25:26;20.20;83.00
45785;DHT22;31489;51.404;5.474;2023-07-31T05:27:51;20.20;83.20
45785;DHT22;31489;51.404;5.474;2023-07-31T05:30:17;20.20;83.30
45785;DHT22;31489;51.404;5.474;2023-07-31T05:32:43;20.10;83.40
45785;DHT22;31489;51.404;5.474;2023-07-31T05:35:08;20.10;83.50
45785;DHT22;31489;51.404;5.474;2023-07-31T05:37:34;20.10;83.80
45785;DHT22;31489;51.404;5.474;2023-07-31T05:40:00;20.10;83.90
45785;DHT22;31489;51.404;5.474;2023-07-31T05:42:26;20.10;84.00
45785;DHT22;31489;51.404;5.474;2023-07-31T05:44:52;20.10;84.20
45785;DHT22;31489;51.404;5.474;2023-07-31T05:47:17;20.10;84.40
45785;DHT22;31489;51.404;5.474;2023-07-31T05:49:43;20.10;84.70
45785;DHT22;31489;51.404;5.474;2023-07-31T05:52:09;20.10;84.90
45785;DHT22;31489;51.404;5.474;2023-07-31T05:54:35;20.00;85.00
45785;DHT22;31489;51.404;5.474;2023-07-31T05:57:01;20.10;85.10
45785;DHT22;31489;51.404;5.474;2023-07-31T05:59:26;20.10;85.10
45785;DHT22;31489;51.404;5.474;2023-07-31T06:01:55;20.00;85.30
45785;DHT22;31489;51.404;5.474;2023-07-31T06:04:21;20.00;85.50
45785;DHT22;31489;51.404;5.474;2023-07-31T06:06:47;20.00;85.70
45785;DHT22;31489;51.404;5.474;2023-07-31T06:09:12;20.00;86.00
45785;DHT22;31489;51.404;5.474;2023-07-31T06:11:39;20.00;86.10
45785;DHT22;31489;51.404;5.474;2023-07-31T06:14:05;20.00;86.30
45785;DHT22;31489;51.404;5.474;2023-07-31T06:16:30;20.00;86.10
45785;DHT22;31489;51.404;5.474;2023-07-31T06:18:56;19.90;86.10
45785;DHT22;31489;51.404;5.474;2023-07-31T06:21:22;19.90;86.20
45785;DHT22;31489;51.404;5.474;2023-07-31T06:23:48;19.90;86.40
45785;DHT22;31489;51.404;5.474;2023-07-31T06:26:13;19.90;86.50
45785;DHT22;31489;51.404;5.474;2023-07-31T06:28:40;19.90;86.60
45785;DHT22;31489;51.404;5.474;2023-07-31T06:31:05;19.90;86.60
45785;DHT22;31489;51.404;5.474;2023-07-31T06:33:31;19.90;86.70
45785;DHT22;31489;51.404;5.474;2023-07-31T06:35:56;19.80;86.90
45785;DHT22;31489;51.404;5.474;2023-07-31T06:38:25;19.80;87.10
45785;DHT22;31489;51.404;5.474;2023-07-31T06:40:51;19.80;86.90
45785;DHT22;31489;51.404;5.474;2023-07-31T06:43:17;19.80;86.90
45785;DHT22;31489;51.404;5.474;2023-07-31T06:45:43;19.80;87.10
45785;DHT22;31489;51.404;5.474;2023-07-31T06:48:08;19.80;87.20
45785;DHT22;31489;51.404;5.474;2023-07-31T06:50:34;19.80;87.20
45785;DHT22;31489;51.404;5.474;2023-07-31T06:53:00;19.70;87.40
45785;DHT22;31489;51.404;5.474;2023-07-31T06:55:26;19.80;87.60
45785;DHT22;31489;51.404;5.474;2023-07-31T06:57:53;19.80;87.70
45785;DHT22;31489;51.404;5.474;2023-07-31T07:00:20;19.80;87.70
45785;DHT22;31489;51.404;5.474;2023-07-31T07:02:46;19.80;87.60
45785;DHT22;31489;51.404;5.474;2023-07-31T07:05:16;19.80;87.70
45785;DHT22;31489;51.404;5.474;2023-07-31T07:07:42;19.80;88.10
45785;DHT22;31489;51.404;5.474;2023-07-31T07:10:09;19.80;87.90
45785;DHT22;31489;51.404;5.474;2023-07-31T07:12:35;19.80;88.00
45785;DHT22;31489;51.404;5.474;2023-07-31T07:15:01;19.80;88.10
45785;DHT22;31489;51.404;5.474;2023-07-31T07:17:28;19.80;88.10
45785;DHT22;31489;51.404;5.474;2023-07-31T07:19:56;19.80;88.10
45785;DHT22;31489;51.404;5.474;2023-07-31T07:22:22;19.80;88.10
45785;DHT22;31489;51.404;5.474;2023-07-31T07:24:48;19.80;88.30
45785;DHT22;31489;51.404;5.474;2023-07-31T07:27:14;19.80;88.40
45785;DHT22;31489;51.404;5.474;2023-07-31T07:29:40;19.80;88.60
45785;DHT22;31489;51.404;5.474;2023-07-31T07:32:06;19.80;88.40
45785;DHT22;31489;51.404;5.474;2023-07-31T07:34:32;19.90;88.30
45785;DHT22;31489;51.404;5.474;2023-07-31T07:36:57;19.90;88.20
45785;DHT22;31489;51.404;5.474;2023-07-31T07:39:23;19.90;88.30
45785;DHT22;31489;51.404;5.474;2023-07-31T07:41:48;19.90;88.10
45785;DHT22;31489;51.404;5.474;2023-07-31T07:44:14;19.90;88.20
45785;DHT22;31489;51.404;5.474;2023-07-31T07:46:40;19.90;88.10
45785;DHT22;31489;51.404;5.474;2023-07-31T07:49:06;19.90;88.10
45785;DHT22;31489;51.404;5.474;2023-07-31T07:51:32;19.90;88.10
45785;DHT22;31489;51.404;5.474;2023-07-31T07:53:58;19.90;87.90
45785;DHT22;31489;51.404;5.474;2023-07-31T07:56:27;19.90;88.00
45785;DHT22;31489;51.404;5.474;2023-07-31T07:58:54;19.90;88.10
45785;DHT22;31489;51.404;5.474;2023-07-31T08:01:20;19.90;87.90
45785;DHT22;31489;51.404;5.474;2023-07-31T08:03:47;19.90;88.10
45785;DHT22;31489;51.404;5.474;2023-07-31T08:06:13;19.90;88.30
45785;DHT22;31489;51.404;5.474;2023-07-31T08:08:39;19.90;88.00
45785;DHT22;31489;51.404;5.474;2023-07-31T08:11:05;19.90;87.90
45785;DHT22;31489;51.404;5.474;2023-07-31T08:13:31;19.90;88.10
45785;DHT22;31489;51.404;5.474;2023-07-31T08:15:57;19.90;88.10
45785;DHT22;31489;51.404;5.474;2023-07-31T08:18:22;19.90;88.40
45785;DHT22;31489;51.404;5.474;2023-07-31T08:20:48;19.90;88.10
45785;DHT22;31489;51.404;5.474;2023-07-31T08:23:14;19.90;88.10
45785;DHT22;31489;51.404;5.474;2023-07-31T08:25:40;19.90;88.30
45785;DHT22;31489;51.404;5.474;2023-07-31T08:28:06;19.90;88.60
45785;DHT22;31489;51.404;5.474;2023-07-31T08:30:32;19.90;88.40
45785;DHT22;31489;51.404;5.474;2023-07-31T08:33:01;19.90;88.60
45785;DHT22;31489;51.404;5.474;2023-07-31T08:35:28;20.00;88.60
45785;DHT22;31489;51.404;5.474;2023-07-31T08:37:54;20.00;88.40
45785;DHT22;31489;51.404;5.474;2023-07-31T08:40:22;19.90;88.30
45785;DHT22;31489;51.404;5.474;2023-07-31T08:42:49;20.00;88.40
45785;DHT22;31489;51.404;5.474;2023-07-31T08:45:18;20.00;88.40
45785;DHT22;31489;51.404;5.474;2023-07-31T08:47:49;19.90;88.10
45785;DHT22;31489;51.404;5.474;2023-07-31T08:50:17;19.90;88.20
45785;DHT22;31489;51.404;5.474;2023-07-31T08:52:43;19.90;88.10
45785;DHT22;31489;51.404;5.474;2023-07-31T08:55:09;20.00;88.20
45785;DHT22;31489;51.404;5.474;2023-07-31T08:57:36;20.00;88.30
45785;DHT22;31489;51.404;5.474;2023-07-31T09:00:04;19.90;88.40
45785;DHT22;31489;51.404;5.474;2023-07-31T09:05:17;20.00;88.60
45785;DHT22;31489;51.404;5.474;2023-07-31T09:07:45;20.00;88.60
45785;DHT22;31489;51.404;5.474;2023-07-31T09:10:12;20.00;88.60
45785;DHT22;31489;51.404;5.474;2023-07-31T09:12:39;20.10;88.80
45785;DHT22;31489;51.404;5.474;2023-07-31T09:15:05;20.10;88.60
45785;DHT22;31489;51.404;5.474;2023-07-31T09:17:35;20.20;88.40
45785;DHT22;31489;51.404;5.474;2023-07-31T09:20:21;20.20;88.30
45785;DHT22;31489;51.404;5.474;2023-07-31T09:22:48;20.20;88.30
45785;DHT22;31489;51.404;5.474;2023-07-31T09:25:14;20.20;88.30
45785;DHT22;31489;51.404;5.474;2023-07-31T09:27:57;20.30;88.40
45785;DHT22;31489;51.404;5.474;2023-07-31T09:30:23;20.30;88.50
45785;DHT22;31489;51.404;5.474;2023-07-31T09:32:50;20.30;88.20
45785;DHT22;31489;51.404;5.474;2023-07-31T09:35:21;20.40;88.40
45785;DHT22;31489;51.404;5.474;2023-07-31T09:37:55;20.40;88.60
45785;DHT22;31489;51.404;5.474;2023-07-31T09:40:35;20.40;88.60
45785;DHT22;31489;51.404;5.474;2023-07-31T09:43:09;20.50;88.50
45785;DHT22;31489;51.404;5.474;2023-07-31T09:45:40;20.50;88.50
45785;DHT22;31489;51.404;5.474;2023-07-31T09:48:11;20.60;88.50
45785;DHT22;31489;51.404;5.474;2023-07-31T09:50:38;20.60;87.70
45785;DHT22;31489;51.404;5.474;2023-07-31T09:53:05;20.70;87.80
45785;DHT22;31489;51.404;5.474;2023-07-31T09:55:32;20.60;87.60
45785;DHT22;31489;51.404;5.474;2023-07-31T09:57:58;20.70;88.50
45785;DHT22;31489;51.404;5.474;2023-07-31T10:00:25;20.70;87.80
45785;DHT22;31489;51.404;5.474;2023-07-31T10:02:54;20.70;87.60
45785;DHT22;31489;51.404;5.474;2023-07-31T10:05:20;20.70;87.50
45785;DHT22;31489;51.404;5.474;2023-07-31T10:08:07;20.70;87.40
45785;DHT22;31489;51.404;5.474;2023-07-31T10:10:36;20.70;87.60
45785;DHT22;31489;51.404;5.474;2023-07-31T10:13:02;20.80;87.60
45785;DHT22;31489;51.404;5.474;2023-07-31T10:15:29;20.80;87.50
45785;DHT22;31489;51.404;5.474;2023-07-31T10:17:56;20.80;87.40
45785;DHT22;31489;51.404;5.474;2023-07-31T10:20:23;20.80;87.80
45785;DHT22;31489;51.404;5.474;2023-07-31T10:22:49;20.90;87.20
45785;DHT22;31489;51.404;5.474;2023-07-31T10:25:18;20.80;87.00
45785;DHT22;31489;51.404;5.474;2023-07-31T10:27:47;20.90;86.80
45785;DHT22;31489;51.404;5.474;2023-07-31T10:30:16;20.90;86.90
45785;DHT22;31489;51.404;5.474;2023-07-31T10:32:44;20.90;87.00
45785;DHT22;31489;51.404;5.474;2023-07-31T10:35:11;20.90;86.90
45785;DHT22;31489;51.404;5.474;2023-07-31T10:37:41;20.90;87.10
45785;DHT22;31489;51.404;5.474;2023-07-31T10:40:25;20.90;86.80
45785;DHT22;31489;51.404;5.474;2023-07-31T10:42:52;20.90;86.40
45785;DHT22;31489;51.404;5.474;2023-07-31T10:45:38;21.00;86.60
45785;DHT22;31489;51.404;5.474;2023-07-31T10:48:05;21.00;86.20
45785;DHT22;31489;51.404;5.474;2023-07-31T10:50:33;21.00;86.70
45785;DHT22;31489;51.404;5.474;2023-07-31T10:53:02;21.00;86.60
45785;DHT22;31489;51.404;5.474;2023-07-31T10:55:42;21.10;87.20
45785;DHT22;31489;51.404;5.474;2023-07-31T10:58:12;21.20;87.50
45785;DHT22;31489;51.404;5.474;2023-07-31T11:00:40;21.20;87.10
45785;DHT22;31489;51.404;5.474;2023-07-31T11:03:10;21.30;86.90
45785;DHT22;31489;51.404;5.474;2023-07-31T11:06:02;21.40;87.70
45785;DHT22;31489;51.404;5.474;2023-07-31T11:08:36;21.60;86.90
45785;DHT22;31489;51.404;5.474;2023-07-31T11:11:08;21.70;86.50
45785;DHT22;31489;51.404;5.474;2023-07-31T11:13:44;21.80;86.50
45785;DHT22;31489;51.404;5.474;2023-07-31T11:16:14;21.80;85.40
45785;DHT22;31489;51.404;5.474;2023-07-31T11:18:41;21.80;85.30
45785;DHT22;31489;51.404;5.474;2023-07-31T11:21:07;21.80;85.00
45785;DHT22;31489;51.404;5.474;2023-07-31T11:23:35;21.80;84.80
45785;DHT22;31489;51.404;5.474;2023-07-31T11:26:02;21.90;84.90
45785;DHT22;31489;51.404;5.474;2023-07-31T11:28:32;21.80;84.60
45785;DHT22;31489;51.404;5.474;2023-07-31T11:30:59;21.80;84.20
45785;DHT22;31489;51.404;5.474;2023-07-31T11:33:24;21.80;84.70
45785;DHT22;31489;51.404;5.474;2023-07-31T11:35:50;21.90;85.40
45785;DHT22;31489;51.404;5.474;2023-07-31T11:38:24;21.80;84.80
45785;DHT22;31489;51.404;5.474;2023-07-31T11:40:50;21.90;84.70
45785;DHT22;31489;51.404;5.474;2023-07-31T11:43:17;21.90;84.80
45785;DHT22;31489;51.404;5.474;2023-07-31T11:45:50;21.80;84.70
45785;DHT22;31489;51.404;5.474;2023-07-31T11:48:24;21.90;84.40
45785;DHT22;31489;51.404;5.474;2023-07-31T11:50:51;21.80;84.30
45785;DHT22;31489;51.404;5.474;2023-07-31T11:53:22;21.80;84.40
45785;DHT22;31489;51.404;5.474;2023-07-31T11:55:49;21.70;84.50
45785;DHT22;31489;51.404;5.474;2023-07-31T11:58:16;21.70;85.10
45785;DHT22;31489;51.404;5.474;2023-07-31T12:00:42;21.70;85.20
45785;DHT22;31489;51.404;5.474;2023-07-31T12:03:08;21.60;85.70
45785;DHT22;31489;51.404;5.474;2023-07-31T12:05:36;21.60;85.30
45785;DHT22;31489;51.404;5.474;2023-07-31T12:08:09;21.60;85.10
45785;DHT22;31489;51.404;5.474;2023-07-31T12:10:36;21.60;85.10
45785;DHT22;31489;51.404;5.474;2023-07-31T12:13:04;21.60;85.70
45785;DHT22;31489;51.404;5.474;2023-07-31T12:15:32;21.60;86.50
45785;DHT22;31489;51.404;5.474;2023-07-31T12:17:58;21.60;85.60
45785;DHT22;31489;51.404;5.474;2023-07-31T12:20:24;21.70;85.60
45785;DHT22;31489;51.404;5.474;2023-07-31T12:22:49;21.70;85.30
45785;DHT22;31489;51.404;5.474;2023-07-31T12:25:16;21.70;85.50
45785;DHT22;31489;51.404;5.474;2023-07-31T12:27:44;21.70;85.20
45785;DHT22;31489;51.404;5.474;2023-07-31T12:30:32;21.80;84.80
45785;DHT22;31489;51.404;5.474;2023-07-31T12:33:02;21.80;84.50
45785;DHT22;31489;51.404;5.474;2023-07-31T12:35:35;21.80;85.00
45785;DHT22;31489;51.404;5.474;2023-07-31T12:38:02;21.80;84.60
45785;DHT22;31489;51.404;5.474;2023-07-31T12:40:27;21.80;85.00
45785;DHT22;31489;51.404;5.474;2023-07-31T12:42:53;21.80;84.90
45785;DHT22;31489;51.404;5.474;2023-07-31T12:45:19;21.80;84.70
45785;DHT22;31489;51.404;5.474;2023-07-31T12:47:46;21.90;84.70
45785;DHT22;31489;51.404;5.474;2023-07-31T12:50:12;21.90;84.60
45785;DHT22;31489;51.404;5.474;2023-07-31T12:52:38;21.90;84.90
45785;DHT22;31489;51.404;5.474;2023-07-31T12:55:04;21.90;84.60
45785;DHT22;31489;51.404;5.474;2023-07-31T12:57:30;22.00;84.60
45785;DHT22;31489;51.404;5.474;2023-07-31T12:59:56;22.00;84.70
45785;DHT22;31489;51.404;5.474;2023-07-31T13:02:22;22.10;84.40
45785;DHT22;31489;51.404;5.474;2023-07-31T13:04:49;22.10;84.40
45785;DHT22;31489;51.404;5.474;2023-07-31T13:07:15;22.10;84.20
45785;DHT22;31489;51.404;5.474;2023-07-31T13:09:41;22.20;84.40
45785;DHT22;31489;51.404;5.474;2023-07-31T13:12:07;22.20;84.00
45785;DHT22;31489;51.404;5.474;2023-07-31T13:14:33;22.20;84.00
45785;DHT22;31489;51.404;5.474;2023-07-31T13:16:58;22.20;84.30
45785;DHT22;31489;51.404;5.474;2023-07-31T13:19:24;22.30;83.80
45785;DHT22;31489;51.404;5.474;2023-07-31T13:21:50;22.30;83.80
45785;DHT22;31489;51.404;5.474;2023-07-31T13:24:16;22.30;83.40
45785;DHT22;31489;51.404;5.474;2023-07-31T13:26:41;22.30;83.40
45785;DHT22;31489;51.404;5.474;2023-07-31T13:29:07;22.30;83.30
45785;DHT22;31489;51.404;5.474;2023-07-31T13:31:33;22.30;82.90
45785;DHT22;31489;51.404;5.474;2023-07-31T13:33:58;22.30;83.00
45785;DHT22;31489;51.404;5.474;2023-07-31T13:36:24;22.30;83.00
45785;DHT22;31489;51.404;5.474;2023-07-31T13:38:50;22.40;83.10
45785;DHT22;31489;51.404;5.474;2023-07-31T13:41:16;22.40;82.80
45785;DHT22;31489;51.404;5.474;2023-07-31T13:43:41;22.40;82.80
45785;DHT22;31489;51.404;5.474;2023-07-31T13:46:07;22.40;82.80
45785;DHT22;31489;51.404;5.474;2023-07-31T13:48:35;22.40;82.50
45785;DHT22;31489;51.404;5.474;2023-07-31T13:51:01;22.30;82.50
45785;DHT22;31489;51.404;5.474;2023-07-31T13:53:27;22.30;82.50
45785;DHT22;31489;51.404;5.474;2023-07-31T13:55:52;22.30;82.40
45785;DHT22;31489;51.404;5.474;2023-07-31T13:58:18;22.40;82.50
45785;DHT22;31489;51.404;5.474;2023-07-31T14:00:46;22.30;82.60
45785;DHT22;31489;51.404;5.474;2023-07-31T14:03:12;22.30;82.20
45785;DHT22;31489;51.404;5.474;2023-07-31T14:05:38;22.30;82.50
45785;DHT22;31489;51.404;5.474;2023-07-31T14:08:04;22.30;82.50
45785;DHT22;31489;51.404;5.474;2023-07-31T14:10:32;22.40;82.50
45785;DHT22;31489;51.404;5.474;2023-07-31T14:12:58;22.40;82.50
45785;DHT22;31489;51.404;5.474;2023-07-31T14:15:23;22.40;82.50
45785;DHT22;31489;51.404;5.474;2023-07-31T14:17:49;22.30;82.50
45785;DHT22;31489;51.404;5.474;2023-07-31T14:20:15;22.30;82.90
45785;DHT22;31489;51.404;5.474;2023-07-31T14:22:41;22.30;83.00
45785;DHT22;31489;51.404;5.474;2023-07-31T14:25:07;22.30;83.10
45785;DHT22;31489;51.404;5.474;2023-07-31T14:27:35;22.30;83.20
45785;DHT22;31489;51.404;5.474;2023-07-31T14:30:02;22.30;83.40
45785;DHT22;31489;51.404;5.474;2023-07-31T14:32:28;22.30;83.60
45785;DHT22;31489;51.404;5.474;2023-07-31T14:34:53;22.30;83.90
45785;DHT22;31489;51.404;5.474;2023-07-31T14:37:20;22.30;84.10
45785;DHT22;31489;51.404;5.474;2023-07-31T14:39:46;22.30;83.80
45785;DHT22;31489;51.404;5.474;2023-07-31T14:42:11;22.30;83.60
45785;DHT22;31489;51.404;5.474;2023-07-31T14:44:38;22.30;83.60
45785;DHT22;31489;51.404;5.474;2023-07-31T14:47:03;22.20;83.70
45785;DHT22;31489;51.404;5.474;2023-07-31T14:49:29;22.20;84.00
45785;DHT22;31489;51.404;5.474;2023-07-31T14:51:58;22.20;84.20
45785;DHT22;31489;51.404;5.474;2023-07-31T14:54:23;22.10;84.20
45785;DHT22;31489;51.404;5.474;2023-07-31T14:56:49;22.10;84.20
45785;DHT22;31489;51.404;5.474;2023-07-31T14:59:15;22.00;84.40
45785;DHT22;31489;51.404;5.474;2023-07-31T15:01:41;22.00;84.70
45785;DHT22;31489;51.404;5.474;2023-07-31T15:04:06;22.00;84.90
45785;DHT22;31489;51.404;5.474;2023-07-31T15:06:32;21.90;85.00
45785;DHT22;31489;51.404;5.474;2023-07-31T15:08:58;21.90;85.20
45785;DHT22;31489;51.404;5.474;2023-07-31T15:11:23;21.90;85.50
45785;DHT22;31489;51.404;5.474;2023-07-31T15:13:49;21.80;85.30
45785;DHT22;31489;51.404;5.474;2023-07-31T15:16:15;21.80;85.40
45785;DHT22;31489;51.404;5.474;2023-07-31T15:18:40;21.70;85.90
45785;DHT22;31489;51.404;5.474;2023-07-31T15:21:06;21.70;85.90
45785;DHT22;31489;51.404;5.474;2023-07-31T15:23:34;21.70;86.00
45785;DHT22;31489;51.404;5.474;2023-07-31T15:25:59;21.60;86.00
45785;DHT22;31489;51.404;5.474;2023-07-31T15:28:30;21.60;86.30
45785;DHT22;31489;51.404;5.474;2023-07-31T15:30:56;21.50;86.70
45785;DHT22;31489;51.404;5.474;2023-07-31T15:33:22;21.50;86.60
45785;DHT22;31489;51.404;5.474;2023-07-31T15:35:48;21.50;87.20